sensor_id;sensor_type;location;lat;lon;timestamp;P1;durP1;ratioP1;P2;durP2;ratioP2
62693;SDS011;48759;52.544;13.418;2022-11-13T00:00:46;26.40;;;19.77;;
62693;SDS011;48759;52.544;13.418;2022-11-13T00:03:14;28.77;;;20.23;;
62693;SDS011;48759;52.544;13.418;2022-11-13T00:05:41;30.10;;;20.43;;
62693;SDS011;48759;52.544;13.418;2022-11-13T00:08:07;30.00;;;20.43;;
62693;SDS011;48759;52.544;13.418;2022-11-13T00:10:34;28.90;;;20.10;;
62693;SDS011;48759;52.544;13.418;2022-11-13T00:13:00;27.70;;;19.93;;
62693;SDS011;48759;52.544;13.418;2022-11-13T00:15:27;27.70;;;19.03;;
62693;SDS011;48759;52.544;13.418;2022-11-13T00:17:53;25.90;;;18.77;;
62693;SDS011;48759;52.544;13.418;2022-11-13T00:20:21;30.30;;;21.00;;
62693;SDS011;48759;52.544;13.418;2022-11-13T00:22:48;28.80;;;18.90;;
62693;SDS011;48759;52.544;13.418;2022-11-13T00:25:15;27.20;;;18.00;;
62693;SDS011;48759;52.544;13.418;2022-11-13T00:27:41;26.70;;;19.00;;
62693;SDS011;48759;52.544;13.418;2022-11-13T00:30:08;28.93;;;18.60;;
62693;SDS011;48759;52.544;13.418;2022-11-13T00:32:35;28.40;;;17.77;;
62693;SDS011;48759;52.544;13.418;2022-11-13T00:35:04;23.27;;;15.87;;
62693;SDS011;48759;52.544;13.418;2022-11-13T00:37:33;25.70;;;16.53;;
62693;SDS011;48759;52.544;13.418;2022-11-13T00:39:59;26.83;;;17.30;;
62693;SDS011;48759;52.544;13.418;2022-11-13T00:42:26;25.73;;;17.00;;
62693;SDS011;48759;52.544;13.418;2022-11-13T00:44:53;23.73;;;15.90;;
62693;SDS011;48759;52.544;13.418;2022-11-13T00:47:19;24.90;;;16.20;;
62693;SDS011;48759;52.544;13.418;2022-11-13T00:49:46;23.43;;;15.40;;
62693;SDS011;48759;52.544;13.418;2022-11-13T00:52:12;21.33;;;15.93;;
62693;SDS011;48759;52.544;13.418;2022-11-13T00:54:40;23.03;;;14.50;;
62693;SDS011;48759;52.544;13.418;2022-11-13T00:57:07;32.73;;;16.63;;
62693;SDS011;48759;52.544;13.418;2022-11-13T00:59:33;23.63;;;15.07;;
62693;SDS011;48759;52.544;13.418;2022-11-13T01:02:00;22.33;;;15.30;;
62693;SDS011;48759;52.544;13.418;2022-11-13T01:04:27;24.17;;;14.63;;
62693;SDS011;48759;52.544;13.418;2022-11-13T01:06:54;21.80;;;14.87;;
62693;SDS011;48759;52.544;13.418;2022-11-13T01:09:21;22.70;;;15.30;;
62693;SDS011;48759;52.544;13.418;2022-11-13T01:11:49;25.20;;;14.50;;
62693;SDS011;48759;52.544;13.418;2022-11-13T01:14:15;20.60;;;15.07;;
62693;SDS011;48759;52.544;13.418;2022-11-13T01:16:42;24.80;;;15.50;;
62693;SDS011;48759;52.544;13.418;2022-11-13T01:19:08;22.53;;;14.40;;
62693;SDS011;48759;52.544;13.418;2022-11-13T01:21:35;23.00;;;16.00;;
62693;SDS011;48759;52.544;13.418;2022-11-13T01:24:02;20.80;;;14.13;;
62693;SDS011;48759;52.544;13.418;2022-11-13T01:26:29;20.53;;;14.10;;
62693;SDS011;48759;52.544;13.418;2022-11-13T01:28:57;18.10;;;13.80;;
62693;SDS011;48759;52.544;13.418;2022-11-13T01:31:25;21.20;;;14.63;;
62693;SDS011;48759;52.544;13.418;2022-11-13T01:33:54;24.00;;;13.40;;
62693;SDS011;48759;52.544;13.418;2022-11-13T01:36:21;22.10;;;14.20;;
62693;SDS011;48759;52.544;13.418;2022-11-13T01:38:49;20.57;;;13.27;;
62693;SDS011;48759;52.544;13.418;2022-11-13T01:41:17;23.23;;;14.83;;
62693;SDS011;48759;52.544;13.418;2022-11-13T01:43:46;20.43;;;14.33;;
62693;SDS011;48759;52.544;13.418;2022-11-13T01:46:21;18.87;;;14.97;;
62693;SDS011;48759;52.544;13.418;2022-11-13T01:48:54;22.20;;;15.13;;
62693;SDS011;48759;52.544;13.418;2022-11-13T01:51:28;18.90;;;15.03;;
62693;SDS011;48759;52.544;13.418;2022-11-13T01:53:58;17.10;;;13.93;;
62693;SDS011;48759;52.544;13.418;2022-11-13T01:56:27;21.87;;;14.83;;
62693;SDS011;48759;52.544;13.418;2022-11-13T01:58:57;18.50;;;14.53;;
62693;SDS011;48759;52.544;13.418;2022-11-13T02:01:29;19.20;;;14.00;;
62693;SDS011;48759;52.544;13.418;2022-11-13T02:03:56;20.43;;;15.03;;
62693;SDS011;48759;52.544;13.418;2022-11-13T02:06:22;18.63;;;13.80;;
62693;SDS011;48759;52.544;13.418;2022-11-13T02:08:50;19.67;;;15.10;;
62693;SDS011;48759;52.544;13.418;2022-11-13T02:11:17;18.80;;;13.93;;
62693;SDS011;48759;52.544;13.418;2022-11-13T02:13:45;17.80;;;14.00;;
62693;SDS011;48759;52.544;13.418;2022-11-13T02:16:12;20.50;;;14.90;;
62693;SDS011;48759;52.544;13.418;2022-11-13T02:18:41;18.30;;;13.67;;
62693;SDS011;48759;52.544;13.418;2022-11-13T02:21:12;24.93;;;15.60;;
62693;SDS011;48759;52.544;13.418;2022-11-13T02:23:48;20.70;;;15.37;;
62693;SDS011;48759;52.544;13.418;2022-11-13T02:26:20;21.63;;;15.20;;
62693;SDS011;48759;52.544;13.418;2022-11-13T02:28:50;24.17;;;16.10;;
62693;SDS011;48759;52.544;13.418;2022-11-13T02:31:16;19.47;;;15.83;;
62693;SDS011;48759;52.544;13.418;2022-11-13T02:33:43;26.30;;;17.10;;
62693;SDS011;48759;52.544;13.418;2022-11-13T02:36:09;23.60;;;16.90;;
62693;SDS011;48759;52.544;13.418;2022-11-13T02:38:38;25.80;;;17.60;;
62693;SDS011;48759;52.544;13.418;2022-11-13T02:41:06;27.63;;;16.70;;
62693;SDS011;48759;52.544;13.418;2022-11-13T02:43:34;27.70;;;18.20;;
62693;SDS011;48759;52.544;13.418;2022-11-13T02:46:01;24.37;;;17.47;;
62693;SDS011;48759;52.544;13.418;2022-11-13T02:48:27;26.10;;;18.47;;
62693;SDS011;48759;52.544;13.418;2022-11-13T02:50:54;24.90;;;17.30;;
62693;SDS011;48759;52.544;13.418;2022-11-13T02:53:21;24.30;;;16.57;;
62693;SDS011;48759;52.544;13.418;2022-11-13T02:55:48;25.33;;;17.30;;
62693;SDS011;48759;52.544;13.418;2022-11-13T02:58:14;25.63;;;17.93;;
62693;SDS011;48759;52.544;13.418;2022-11-13T03:00:42;26.27;;;18.77;;
62693;SDS011;48759;52.544;13.418;2022-11-13T03:03:09;22.57;;;15.47;;
62693;SDS011;48759;52.544;13.418;2022-11-13T03:05:35;26.90;;;17.57;;
62693;SDS011;48759;52.544;13.418;2022-11-13T03:08:02;26.80;;;19.90;;
62693;SDS011;48759;52.544;13.418;2022-11-13T03:10:29;29.80;;;19.37;;
62693;SDS011;48759;52.544;13.418;2022-11-13T03:12:57;22.83;;;17.83;;
62693;SDS011;48759;52.544;13.418;2022-11-13T03:15:24;23.87;;;17.87;;
62693;SDS011;48759;52.544;13.418;2022-11-13T03:17:52;25.33;;;17.63;;
62693;SDS011;48759;52.544;13.418;2022-11-13T03:20:18;31.10;;;18.60;;
62693;SDS011;48759;52.544;13.418;2022-11-13T03:22:45;27.13;;;18.60;;
62693;SDS011;48759;52.544;13.418;2022-11-13T03:25:12;23.63;;;16.97;;
62693;SDS011;48759;52.544;13.418;2022-11-13T03:27:38;22.70;;;16.87;;
62693;SDS011;48759;52.544;13.418;2022-11-13T03:30:05;25.97;;;17.80;;
62693;SDS011;48759;52.544;13.418;2022-11-13T03:32:33;25.77;;;17.37;;
62693;SDS011;48759;52.544;13.418;2022-11-13T03:35:00;27.07;;;18.50;;
62693;SDS011;48759;52.544;13.418;2022-11-13T03:37:27;23.20;;;16.17;;
62693;SDS011;48759;52.544;13.418;2022-11-13T03:39:54;28.30;;;17.20;;
62693;SDS011;48759;52.544;13.418;2022-11-13T03:42:20;23.53;;;18.20;;
62693;SDS011;48759;52.544;13.418;2022-11-13T03:44:47;32.90;;;17.77;;
62693;SDS011;48759;52.544;13.418;2022-11-13T03:47:13;25.07;;;17.73;;
62693;SDS011;48759;52.544;13.418;2022-11-13T03:49:40;21.10;;;16.10;;
62693;SDS011;48759;52.544;13.418;2022-11-13T03:52:08;22.17;;;16.90;;
62693;SDS011;48759;52.544;13.418;2022-11-13T03:54:35;24.77;;;15.33;;
62693;SDS011;48759;52.544;13.418;2022-11-13T03:57:01;18.23;;;14.17;;
62693;SDS011;48759;52.544;13.418;2022-11-13T03:59:28;17.00;;;14.00;;
62693;SDS011;48759;52.544;13.418;2022-11-13T04:01:55;18.20;;;14.33;;
62693;SDS011;48759;52.544;13.418;2022-11-13T04:04:21;20.80;;;14.63;;
62693;SDS011;48759;52.544;13.418;2022-11-13T04:06:48;17.93;;;13.63;;
62693;SDS011;48759;52.544;13.418;2022-11-13T04:09:16;19.47;;;13.20;;
62693;SDS011;48759;52.544;13.418;2022-11-13T04:11:43;19.23;;;14.13;;
62693;SDS011;48759;52.544;13.418;2022-11-13T04:14:09;18.70;;;14.33;;
62693;SDS011;48759;52.544;13.418;2022-11-13T04:16:36;17.17;;;13.43;;
62693;SDS011;48759;52.544;13.418;2022-11-13T04:19:02;18.70;;;13.47;;
62693;SDS011;48759;52.544;13.418;2022-11-13T04:21:29;15.00;;;12.20;;
62693;SDS011;48759;52.544;13.418;2022-11-13T04:23:56;15.83;;;12.83;;
62693;SDS011;48759;52.544;13.418;2022-11-13T04:26:24;17.33;;;12.87;;
62693;SDS011;48759;52.544;13.418;2022-11-13T04:28:50;17.87;;;11.83;;
62693;SDS011;48759;52.544;13.418;2022-11-13T04:31:18;20.53;;;13.80;;
62693;SDS011;48759;52.544;13.418;2022-11-13T04:33:45;18.50;;;12.40;;
62693;SDS011;48759;52.544;13.418;2022-11-13T04:36:11;15.50;;;12.37;;
62693;SDS011;48759;52.544;13.418;2022-11-13T04:38:38;16.13;;;12.20;;
62693;SDS011;48759;52.544;13.418;2022-11-13T04:41:04;16.93;;;12.13;;
62693;SDS011;48759;52.544;13.418;2022-11-13T04:43:50;18.33;;;12.43;;
62693;SDS011;48759;52.544;13.418;2022-11-13T04:46:16;16.40;;;12.87;;
62693;SDS011;48759;52.544;13.418;2022-11-13T04:48:43;14.93;;;12.73;;
62693;SDS011;48759;52.544;13.418;2022-11-13T04:51:09;14.30;;;11.87;;
62693;SDS011;48759;52.544;13.418;2022-11-13T04:53:36;14.13;;;12.00;;
62693;SDS011;48759;52.544;13.418;2022-11-13T04:56:03;19.23;;;12.57;;
62693;SDS011;48759;52.544;13.418;2022-11-13T04:58:30;14.93;;;13.00;;
62693;SDS011;48759;52.544;13.418;2022-11-13T05:00:58;16.70;;;13.00;;
62693;SDS011;48759;52.544;13.418;2022-11-13T05:03:24;15.30;;;12.80;;
62693;SDS011;48759;52.544;13.418;2022-11-13T05:05:51;15.60;;;12.10;;
62693;SDS011;48759;52.544;13.418;2022-11-13T05:08:17;17.30;;;13.20;;
62693;SDS011;48759;52.544;13.418;2022-11-13T05:10:44;19.30;;;12.60;;
62693;SDS011;48759;52.544;13.418;2022-11-13T05:13:11;18.30;;;13.23;;
62693;SDS011;48759;52.544;13.418;2022-11-13T05:15:37;19.57;;;12.37;;
62693;SDS011;48759;52.544;13.418;2022-11-13T05:18:05;15.33;;;12.37;;
62693;SDS011;48759;52.544;13.418;2022-11-13T05:20:32;17.57;;;13.00;;
62693;SDS011;48759;52.544;13.418;2022-11-13T05:22:58;21.27;;;14.40;;
62693;SDS011;48759;52.544;13.418;2022-11-13T05:25:25;19.70;;;14.03;;
62693;SDS011;48759;52.544;13.418;2022-11-13T05:27:51;19.20;;;14.27;;
62693;SDS011;48759;52.544;13.418;2022-11-13T05:30:19;19.30;;;14.90;;
62693;SDS011;48759;52.544;13.418;2022-11-13T05:32:45;17.70;;;14.90;;
62693;SDS011;48759;52.544;13.418;2022-11-13T05:35:14;22.97;;;15.87;;
62693;SDS011;48759;52.544;13.418;2022-11-13T05:37:40;20.73;;;16.07;;
62693;SDS011;48759;52.544;13.418;2022-11-13T05:40:07;22.13;;;15.77;;
62693;SDS011;48759;52.544;13.418;2022-11-13T05:42:35;21.10;;;17.83;;
62693;SDS011;48759;52.544;13.418;2022-11-13T05:45:02;23.20;;;17.70;;
62693;SDS011;48759;52.544;13.418;2022-11-13T05:47:29;23.50;;;18.40;;
62693;SDS011;48759;52.544;13.418;2022-11-13T05:49:57;25.83;;;18.10;;
62693;SDS011;48759;52.544;13.418;2022-11-13T05:52:25;23.57;;;18.13;;
62693;SDS011;48759;52.544;13.418;2022-11-13T05:54:52;26.70;;;19.90;;
62693;SDS011;48759;52.544;13.418;2022-11-13T05:57:18;27.77;;;18.80;;
62693;SDS011;48759;52.544;13.418;2022-11-13T05:59:47;28.67;;;19.23;;
62693;SDS011;48759;52.544;13.418;2022-11-13T06:02:20;32.10;;;20.63;;
62693;SDS011;48759;52.544;13.418;2022-11-13T06:04:46;27.77;;;20.40;;
62693;SDS011;48759;52.544;13.418;2022-11-13T06:07:13;29.93;;;20.30;;
62693;SDS011;48759;52.544;13.418;2022-11-13T06:09:42;28.93;;;21.43;;
62693;SDS011;48759;52.544;13.418;2022-11-13T06:12:08;25.20;;;20.10;;
62693;SDS011;48759;52.544;13.418;2022-11-13T06:14:35;28.47;;;22.00;;
62693;SDS011;48759;52.544;13.418;2022-11-13T06:17:05;26.00;;;19.70;;
62693;SDS011;48759;52.544;13.418;2022-11-13T06:19:31;32.73;;;20.50;;
62693;SDS011;48759;52.544;13.418;2022-11-13T06:21:58;29.80;;;20.20;;
62693;SDS011;48759;52.544;13.418;2022-11-13T06:24:25;27.93;;;19.13;;
62693;SDS011;48759;52.544;13.418;2022-11-13T06:26:53;27.80;;;18.20;;
62693;SDS011;48759;52.544;13.418;2022-11-13T06:29:19;26.03;;;17.17;;
62693;SDS011;48759;52.544;13.418;2022-11-13T06:31:46;27.23;;;17.13;;
62693;SDS011;48759;52.544;13.418;2022-11-13T06:34:12;23.73;;;17.03;;
62693;SDS011;48759;52.544;13.418;2022-11-13T06:36:39;24.53;;;16.60;;
62693;SDS011;48759;52.544;13.418;2022-11-13T06:39:06;24.53;;;16.40;;
62693;SDS011;48759;52.544;13.418;2022-11-13T06:41:34;20.73;;;15.87;;
62693;SDS011;48759;52.544;13.418;2022-11-13T06:44:04;26.53;;;16.53;;
62693;SDS011;48759;52.544;13.418;2022-11-13T06:46:30;23.83;;;17.37;;
62693;SDS011;48759;52.544;13.418;2022-11-13T06:48:57;24.20;;;17.70;;
62693;SDS011;48759;52.544;13.418;2022-11-13T06:51:24;32.43;;;20.27;;
62693;SDS011;48759;52.544;13.418;2022-11-13T06:53:52;33.97;;;18.53;;
62693;SDS011;48759;52.544;13.418;2022-11-13T06:56:19;25.70;;;19.30;;
62693;SDS011;48759;52.544;13.418;2022-11-13T06:58:46;27.83;;;19.30;;
62693;SDS011;48759;52.544;13.418;2022-11-13T07:01:15;25.40;;;17.47;;
62693;SDS011;48759;52.544;13.418;2022-11-13T07:03:44;27.83;;;19.80;;
62693;SDS011;48759;52.544;13.418;2022-11-13T07:06:11;25.57;;;18.23;;
62693;SDS011;48759;52.544;13.418;2022-11-13T07:08:50;29.63;;;19.50;;
62693;SDS011;48759;52.544;13.418;2022-11-13T07:11:17;26.93;;;19.90;;
62693;SDS011;48759;52.544;13.418;2022-11-13T07:13:45;29.80;;;19.50;;
62693;SDS011;48759;52.544;13.418;2022-11-13T07:16:14;30.13;;;20.50;;
62693;SDS011;48759;52.544;13.418;2022-11-13T07:18:41;25.73;;;19.13;;
62693;SDS011;48759;52.544;13.418;2022-11-13T07:21:09;34.57;;;24.87;;
62693;SDS011;48759;52.544;13.418;2022-11-13T07:23:36;29.70;;;19.70;;
62693;SDS011;48759;52.544;13.418;2022-11-13T07:26:07;28.80;;;20.70;;
62693;SDS011;48759;52.544;13.418;2022-11-13T07:28:35;29.80;;;21.60;;
62693;SDS011;48759;52.544;13.418;2022-11-13T07:31:06;29.80;;;21.20;;
62693;SDS011;48759;52.544;13.418;2022-11-13T07:33:41;32.43;;;20.70;;
62693;SDS011;48759;52.544;13.418;2022-11-13T07:36:09;29.47;;;21.17;;
62693;SDS011;48759;52.544;13.418;2022-11-13T07:38:38;28.97;;;20.77;;
62693;SDS011;48759;52.544;13.418;2022-11-13T07:41:12;47.67;;;27.87;;
62693;SDS011;48759;52.544;13.418;2022-11-13T07:43:38;30.40;;;21.97;;
62693;SDS011;48759;52.544;13.418;2022-11-13T07:46:05;33.37;;;20.20;;
62693;SDS011;48759;52.544;13.418;2022-11-13T07:48:38;28.73;;;21.30;;
62693;SDS011;48759;52.544;13.418;2022-11-13T07:51:06;32.30;;;20.33;;
62693;SDS011;48759;52.544;13.418;2022-11-13T07:53:33;32.83;;;22.43;;
62693;SDS011;48759;52.544;13.418;2022-11-13T07:56:05;36.50;;;21.67;;
62693;SDS011;48759;52.544;13.418;2022-11-13T07:58:32;28.73;;;20.10;;
62693;SDS011;48759;52.544;13.418;2022-11-13T08:01:02;37.83;;;21.70;;
62693;SDS011;48759;52.544;13.418;2022-11-13T08:03:37;32.40;;;20.33;;
62693;SDS011;48759;52.544;13.418;2022-11-13T08:06:14;30.20;;;19.93;;
62693;SDS011;48759;52.544;13.418;2022-11-13T08:08:40;28.57;;;19.53;;
62693;SDS011;48759;52.544;13.418;2022-11-13T08:11:08;33.40;;;19.80;;
62693;SDS011;48759;52.544;13.418;2022-11-13T08:13:35;30.83;;;19.57;;
62693;SDS011;48759;52.544;13.418;2022-11-13T08:16:09;33.30;;;23.73;;
62693;SDS011;48759;52.544;13.418;2022-11-13T08:18:40;29.60;;;20.20;;
62693;SDS011;48759;52.544;13.418;2022-11-13T08:21:06;30.87;;;19.70;;
62693;SDS011;48759;52.544;13.418;2022-11-13T08:23:34;36.30;;;19.20;;
62693;SDS011;48759;52.544;13.418;2022-11-13T08:26:04;30.03;;;20.70;;
62693;SDS011;48759;52.544;13.418;2022-11-13T08:28:32;26.93;;;20.60;;
62693;SDS011;48759;52.544;13.418;2022-11-13T08:31:00;32.23;;;18.80;;
62693;SDS011;48759;52.544;13.418;2022-11-13T08:33:28;26.27;;;18.87;;
62693;SDS011;48759;52.544;13.418;2022-11-13T08:35:55;28.33;;;19.53;;
62693;SDS011;48759;52.544;13.418;2022-11-13T08:38:22;30.33;;;21.10;;
62693;SDS011;48759;52.544;13.418;2022-11-13T08:40:51;31.37;;;20.47;;
62693;SDS011;48759;52.544;13.418;2022-11-13T08:43:18;28.40;;;19.80;;
62693;SDS011;48759;52.544;13.418;2022-11-13T08:45:44;27.07;;;18.73;;
62693;SDS011;48759;52.544;13.418;2022-11-13T08:48:12;27.50;;;18.60;;
62693;SDS011;48759;52.544;13.418;2022-11-13T08:50:39;30.80;;;18.43;;
62693;SDS011;48759;52.544;13.418;2022-11-13T08:53:05;27.50;;;18.57;;
62693;SDS011;48759;52.544;13.418;2022-11-13T08:55:32;34.47;;;20.73;;
62693;SDS011;48759;52.544;13.418;2022-11-13T08:58:01;34.13;;;18.40;;
62693;SDS011;48759;52.544;13.418;2022-11-13T09:00:30;27.97;;;18.20;;
62693;SDS011;48759;52.544;13.418;2022-11-13T09:02:57;32.43;;;19.00;;
62693;SDS011;48759;52.544;13.418;2022-11-13T09:05:25;32.00;;;18.43;;
62693;SDS011;48759;52.544;13.418;2022-11-13T09:07:54;24.70;;;17.40;;
62693;SDS011;48759;52.544;13.418;2022-11-13T09:10:22;31.50;;;18.53;;
62693;SDS011;48759;52.544;13.418;2022-11-13T09:12:53;29.93;;;18.17;;
62693;SDS011;48759;52.544;13.418;2022-11-13T09:15:23;33.30;;;19.80;;
62693;SDS011;48759;52.544;13.418;2022-11-13T09:17:50;33.10;;;20.90;;
62693;SDS011;48759;52.544;13.418;2022-11-13T09:20:16;31.60;;;20.13;;
62693;SDS011;48759;52.544;13.418;2022-11-13T09:22:43;29.33;;;19.87;;
62693;SDS011;48759;52.544;13.418;2022-11-13T09:25:10;28.43;;;19.90;;
62693;SDS011;48759;52.544;13.418;2022-11-13T09:27:36;30.77;;;18.50;;
62693;SDS011;48759;52.544;13.418;2022-11-13T09:30:03;29.63;;;19.30;;
62693;SDS011;48759;52.544;13.418;2022-11-13T09:32:32;26.00;;;18.60;;
62693;SDS011;48759;52.544;13.418;2022-11-13T09:34:58;33.57;;;19.93;;
62693;SDS011;48759;52.544;13.418;2022-11-13T09:37:25;27.83;;;19.13;;
62693;SDS011;48759;52.544;13.418;2022-11-13T09:39:51;30.83;;;21.70;;
62693;SDS011;48759;52.544;13.418;2022-11-13T09:42:19;32.20;;;22.60;;
62693;SDS011;48759;52.544;13.418;2022-11-13T09:44:50;30.03;;;20.87;;
62693;SDS011;48759;52.544;13.418;2022-11-13T09:47:20;39.93;;;25.30;;
62693;SDS011;48759;52.544;13.418;2022-11-13T09:49:52;33.00;;;24.00;;
62693;SDS011;48759;52.544;13.418;2022-11-13T09:52:24;30.93;;;20.27;;
62693;SDS011;48759;52.544;13.418;2022-11-13T09:54:56;32.23;;;22.23;;
62693;SDS011;48759;52.544;13.418;2022-11-13T09:57:25;28.93;;;20.90;;
62693;SDS011;48759;52.544;13.418;2022-11-13T09:59:59;28.10;;;19.47;;
62693;SDS011;48759;52.544;13.418;2022-11-13T10:02:32;25.90;;;18.70;;
62693;SDS011;48759;52.544;13.418;2022-11-13T10:05:12;29.27;;;18.40;;
62693;SDS011;48759;52.544;13.418;2022-11-13T10:07:47;23.23;;;18.03;;
62693;SDS011;48759;52.544;13.418;2022-11-13T10:10:26;32.03;;;18.53;;
62693;SDS011;48759;52.544;13.418;2022-11-13T10:13:12;27.10;;;18.23;;
62693;SDS011;48759;52.544;13.418;2022-11-13T10:15:41;26.97;;;17.90;;
62693;SDS011;48759;52.544;13.418;2022-11-13T10:18:11;25.70;;;16.13;;
62693;SDS011;48759;52.544;13.418;2022-11-13T10:20:43;31.93;;;20.00;;
62693;SDS011;48759;52.544;13.418;2022-11-13T10:23:15;29.13;;;19.00;;
62693;SDS011;48759;52.544;13.418;2022-11-13T10:25:46;29.23;;;18.47;;
62693;SDS011;48759;52.544;13.418;2022-11-13T10:28:16;28.03;;;18.17;;
62693;SDS011;48759;52.544;13.418;2022-11-13T10:30:44;34.20;;;18.83;;
62693;SDS011;48759;52.544;13.418;2022-11-13T10:33:13;48.63;;;24.27;;
62693;SDS011;48759;52.544;13.418;2022-11-13T10:35:45;28.50;;;19.40;;
62693;SDS011;48759;52.544;13.418;2022-11-13T10:38:19;44.17;;;21.07;;
62693;SDS011;48759;52.544;13.418;2022-11-13T10:40:49;25.33;;;16.77;;
62693;SDS011;48759;52.544;13.418;2022-11-13T10:43:17;38.50;;;20.57;;
62693;SDS011;48759;52.544;13.418;2022-11-13T10:45:53;33.90;;;20.10;;
62693;SDS011;48759;52.544;13.418;2022-11-13T10:48:24;28.57;;;18.23;;
62693;SDS011;48759;52.544;13.418;2022-11-13T10:50:54;34.33;;;19.23;;
62693;SDS011;48759;52.544;13.418;2022-11-13T10:53:22;26.13;;;17.33;;
62693;SDS011;48759;52.544;13.418;2022-11-13T10:55:51;22.57;;;17.27;;
62693;SDS011;48759;52.544;13.418;2022-11-13T10:58:21;25.73;;;17.80;;
62693;SDS011;48759;52.544;13.418;2022-11-13T11:00:48;28.60;;;18.07;;
62693;SDS011;48759;52.544;13.418;2022-11-13T11:03:17;29.80;;;17.27;;
62693;SDS011;48759;52.544;13.418;2022-11-13T11:05:51;28.33;;;19.07;;
62693;SDS011;48759;52.544;13.418;2022-11-13T11:08:22;22.40;;;16.67;;
62693;SDS011;48759;52.544;13.418;2022-11-13T11:10:54;28.63;;;19.47;;
62693;SDS011;48759;52.544;13.418;2022-11-13T11:13:40;22.40;;;15.73;;
62693;SDS011;48759;52.544;13.418;2022-11-13T11:16:07;21.27;;;15.20;;
62693;SDS011;48759;52.544;13.418;2022-11-13T11:18:37;20.73;;;15.90;;
62693;SDS011;48759;52.544;13.418;2022-11-13T11:21:10;21.03;;;15.27;;
62693;SDS011;48759;52.544;13.418;2022-11-13T11:23:42;23.20;;;15.17;;
62693;SDS011;48759;52.544;13.418;2022-11-13T11:26:13;19.07;;;15.20;;
62693;SDS011;48759;52.544;13.418;2022-11-13T11:28:42;24.93;;;16.40;;
62693;SDS011;48759;52.544;13.418;2022-11-13T11:31:14;20.67;;;14.57;;
62693;SDS011;48759;52.544;13.418;2022-11-13T11:33:47;32.87;;;22.47;;
62693;SDS011;48759;52.544;13.418;2022-11-13T11:36:20;25.70;;;16.67;;
62693;SDS011;48759;52.544;13.418;2022-11-13T11:38:54;22.73;;;15.63;;
62693;SDS011;48759;52.544;13.418;2022-11-13T11:41:29;17.83;;;14.70;;
62693;SDS011;48759;52.544;13.418;2022-11-13T11:44:03;23.43;;;15.27;;
62693;SDS011;48759;52.544;13.418;2022-11-13T11:46:39;16.23;;;13.53;;
62693;SDS011;48759;52.544;13.418;2022-11-13T11:49:07;19.03;;;13.63;;
62693;SDS011;48759;52.544;13.418;2022-11-13T11:51:38;17.40;;;13.17;;
62693;SDS011;48759;52.544;13.418;2022-11-13T11:54:15;15.80;;;13.27;;
62693;SDS011;48759;52.544;13.418;2022-11-13T11:56:52;15.97;;;13.40;;
62693;SDS011;48759;52.544;13.418;2022-11-13T11:59:26;18.67;;;13.17;;
62693;SDS011;48759;52.544;13.418;2022-11-13T12:02:20;17.70;;;13.10;;
62693;SDS011;48759;52.544;13.418;2022-11-13T12:05:16;15.80;;;13.47;;
62693;SDS011;48759;52.544;13.418;2022-11-13T12:07:51;18.83;;;13.57;;
62693;SDS011;48759;52.544;13.418;2022-11-13T12:10:29;18.23;;;13.73;;
62693;SDS011;48759;52.544;13.418;2022-11-13T12:13:08;20.87;;;15.23;;
62693;SDS011;48759;52.544;13.418;2022-11-13T12:15:43;28.33;;;18.00;;
62693;SDS011;48759;52.544;13.418;2022-11-13T12:18:17;25.60;;;18.63;;
62693;SDS011;48759;52.544;13.418;2022-11-13T12:20:53;61.57;;;36.40;;
62693;SDS011;48759;52.544;13.418;2022-11-13T12:23:33;31.70;;;20.23;;
62693;SDS011;48759;52.544;13.418;2022-11-13T12:26:12;27.37;;;18.93;;
62693;SDS011;48759;52.544;13.418;2022-11-13T12:28:47;27.90;;;18.33;;
62693;SDS011;48759;52.544;13.418;2022-11-13T12:31:20;26.23;;;18.03;;
62693;SDS011;48759;52.544;13.418;2022-11-13T12:34:04;39.00;;;24.43;;
62693;SDS011;48759;52.544;13.418;2022-11-13T12:36:38;41.20;;;23.37;;
62693;SDS011;48759;52.544;13.418;2022-11-13T12:39:10;38.80;;;24.53;;
62693;SDS011;48759;52.544;13.418;2022-11-13T12:41:52;31.53;;;21.37;;
62693;SDS011;48759;52.544;13.418;2022-11-13T12:44:22;28.43;;;19.50;;
62693;SDS011;48759;52.544;13.418;2022-11-13T12:46:50;24.83;;;17.03;;
62693;SDS011;48759;52.544;13.418;2022-11-13T12:49:29;28.40;;;17.37;;
62693;SDS011;48759;52.544;13.418;2022-11-13T12:51:58;25.90;;;16.70;;
62693;SDS011;48759;52.544;13.418;2022-11-13T12:54:29;28.20;;;17.50;;
62693;SDS011;48759;52.544;13.418;2022-11-13T12:57:14;27.60;;;17.40;;
62693;SDS011;48759;52.544;13.418;2022-11-13T12:59:44;23.00;;;17.53;;
62693;SDS011;48759;52.544;13.418;2022-11-13T13:02:20;40.77;;;22.27;;
62693;SDS011;48759;52.544;13.418;2022-11-13T13:05:12;37.77;;;21.50;;
62693;SDS011;48759;52.544;13.418;2022-11-13T13:10:43;28.20;;;19.40;;
62693;SDS011;48759;52.544;13.418;2022-11-13T13:13:19;37.57;;;22.90;;
62693;SDS011;48759;52.544;13.418;2022-11-13T13:15:52;24.67;;;16.50;;
62693;SDS011;48759;52.544;13.418;2022-11-13T13:18:25;30.17;;;16.63;;
62693;SDS011;48759;52.544;13.418;2022-11-13T13:20:58;30.87;;;19.87;;
62693;SDS011;48759;52.544;13.418;2022-11-13T13:23:29;27.93;;;19.73;;
62693;SDS011;48759;52.544;13.418;2022-11-13T13:26:11;29.97;;;16.80;;
62693;SDS011;48759;52.544;13.418;2022-11-13T13:28:47;25.90;;;18.10;;
62693;SDS011;48759;52.544;13.418;2022-11-13T13:31:24;26.40;;;15.17;;
62693;SDS011;48759;52.544;13.418;2022-11-13T13:34:04;24.43;;;16.17;;
62693;SDS011;48759;52.544;13.418;2022-11-13T13:36:50;55.77;;;33.97;;
62693;SDS011;48759;52.544;13.418;2022-11-13T13:39:33;41.73;;;26.50;;
62693;SDS011;48759;52.544;13.418;2022-11-13T13:42:24;38.50;;;23.00;;
62693;SDS011;48759;52.544;13.418;2022-11-13T13:45:05;30.40;;;19.20;;
62693;SDS011;48759;52.544;13.418;2022-11-13T13:47:44;28.57;;;17.77;;
62693;SDS011;48759;52.544;13.418;2022-11-13T13:50:13;33.73;;;22.17;;
62693;SDS011;48759;52.544;13.418;2022-11-13T13:52:44;32.63;;;19.27;;
62693;SDS011;48759;52.544;13.418;2022-11-13T13:55:15;26.80;;;17.80;;
62693;SDS011;48759;52.544;13.418;2022-11-13T13:57:45;23.00;;;15.57;;
62693;SDS011;48759;52.544;13.418;2022-11-13T14:00:13;25.37;;;17.43;;
62693;SDS011;48759;52.544;13.418;2022-11-13T14:02:46;26.40;;;16.60;;
62693;SDS011;48759;52.544;13.418;2022-11-13T14:05:25;32.87;;;24.40;;
62693;SDS011;48759;52.544;13.418;2022-11-13T14:07:53;35.00;;;25.17;;
62693;SDS011;48759;52.544;13.418;2022-11-13T14:10:21;38.50;;;27.40;;
62693;SDS011;48759;52.544;13.418;2022-11-13T14:12:51;29.00;;;21.33;;
62693;SDS011;48759;52.544;13.418;2022-11-13T14:15:24;23.70;;;17.33;;
62693;SDS011;48759;52.544;13.418;2022-11-13T14:18:02;25.33;;;17.30;;
62693;SDS011;48759;52.544;13.418;2022-11-13T14:20:33;25.57;;;17.00;;
62693;SDS011;48759;52.544;13.418;2022-11-13T14:23:05;21.73;;;15.47;;
62693;SDS011;48759;52.544;13.418;2022-11-13T14:25:35;22.80;;;14.20;;